createdAt,value
2019-02-27T00:00:59.670Z,990.90
2019-02-27T00:01:59.644Z,990.90
2019-02-27T00:02:59.665Z,990.96
2019-02-27T00:03:59.847Z,991.00
2019-02-27T00:04:59.688Z,990.96
2019-02-27T00:05:59.708Z,990.94
2019-02-27T00:06:59.673Z,990.96
2019-02-27T00:07:59.692Z,990.98
2019-02-27T00:09:00.480Z,990.97
2019-02-27T00:09:59.756Z,991.04
2019-02-27T00:10:59.760Z,991.08
2019-02-27T00:11:59.727Z,991.06
2019-02-27T00:12:59.725Z,991.17
2019-02-27T00:13:59.532Z,991.11
2019-02-27T00:15:02.098Z,991.05
2019-02-27T00:15:59.554Z,991.07
2019-02-27T00:16:59.580Z,991.08
2019-02-27T00:17:59.627Z,991.09
2019-02-27T00:18:59.601Z,991.05
2019-02-27T00:20:04.089Z,991.07
2019-02-27T00:20:59.580Z,991.15
2019-02-27T00:21:59.595Z,991.13
2019-02-27T00:22:59.612Z,991.11
2019-02-27T00:23:59.623Z,991.09
2019-02-27T00:25:03.085Z,991.02
2019-02-27T00:25:59.619Z,990.97
2019-02-27T00:26:59.630Z,991.10
2019-02-27T00:27:59.637Z,991.06
2019-02-27T00:28:59.661Z,991.03
2019-02-27T00:30:04.510Z,991.18
2019-02-27T00:30:59.666Z,991.10
2019-02-27T00:31:59.661Z,991.09
2019-02-27T00:32:59.677Z,991.11
2019-02-27T00:34:00.435Z,991.04
2019-02-27T00:34:59.695Z,990.99
2019-02-27T00:35:59.913Z,991.06
2019-02-27T00:36:59.699Z,990.99
2019-02-27T00:37:59.696Z,991.00
2019-02-27T00:38:59.719Z,991.06
2019-02-27T00:39:59.925Z,990.93
2019-02-27T00:40:59.754Z,990.90
2019-02-27T00:41:59.764Z,990.96
2019-02-27T00:42:59.761Z,990.98
2019-02-27T00:44:01.364Z,990.87
2019-02-27T00:44:59.566Z,990.94
2019-02-27T00:45:59.566Z,990.94
2019-02-27T00:46:59.590Z,990.92
2019-02-27T00:47:59.601Z,990.93
2019-02-27T00:48:59.842Z,990.96
2019-02-27T00:49:59.588Z,990.89
2019-02-27T00:50:59.604Z,990.83
2019-02-27T00:51:59.601Z,990.87
2019-02-27T00:52:59.630Z,990.95
2019-02-27T00:53:59.649Z,990.86
2019-02-27T00:55:04.343Z,991.00
2019-02-27T00:55:59.657Z,990.90
2019-02-27T00:56:59.658Z,990.94
2019-02-27T00:57:59.649Z,991.00
2019-02-27T00:59:00.308Z,990.98
2019-02-27T00:59:59.691Z,991.01
2019-02-27T01:00:59.687Z,990.99
2019-02-27T01:01:59.710Z,991.03
2019-02-27T01:03:00.093Z,991.08
2019-02-27T01:04:02.262Z,991.10
2019-02-27T01:04:59.734Z,991.18
2019-02-27T01:05:59.926Z,991.07
2019-02-27T01:06:59.723Z,991.11
2019-02-27T01:07:59.762Z,991.10
2019-02-27T01:08:59.717Z,991.17
2019-02-27T01:09:59.752Z,991.10
2019-02-27T01:10:59.769Z,991.07
2019-02-27T01:11:59.802Z,991.09
2019-02-27T01:12:59.756Z,991.02
2019-02-27T01:14:03.742Z,991.07
2019-02-27T01:14:59.793Z,991.07
2019-02-27T01:15:59.573Z,991.15
2019-02-27T01:16:59.604Z,991.14
2019-02-27T01:17:59.619Z,991.08
2019-02-27T01:19:02.197Z,991.12
2019-02-27T01:19:59.609Z,991.04
2019-02-27T01:20:59.621Z,991.06
2019-02-27T01:21:59.619Z,991.09
2019-02-27T01:22:59.634Z,991.04
2019-02-27T01:23:59.677Z,991.06
2019-02-27T01:24:59.648Z,991.05
2019-02-27T01:25:59.649Z,991.09
2019-02-27T01:27:04.153Z,991.10
2019-02-27T01:28:01.612Z,991.02
2019-02-27T01:28:59.721Z,990.98
2019-02-27T01:29:59.692Z,991.06
2019-02-27T01:30:59.697Z,990.98
2019-02-27T01:31:59.696Z,991.00
2019-02-27T01:33:03.986Z,990.96
2019-02-27T01:33:59.727Z,991.01
2019-02-27T01:34:59.735Z,990.95
2019-02-27T01:35:59.736Z,990.95
2019-02-27T01:36:59.758Z,991.00
2019-02-27T01:37:59.746Z,990.94
2019-02-27T01:38:59.757Z,990.91
2019-02-27T01:39:59.782Z,990.97
2019-02-27T01:40:59.773Z,990.88
2019-02-27T01:41:59.770Z,990.91
2019-02-27T01:42:59.774Z,990.89
2019-02-27T01:43:59.830Z,990.87
2019-02-27T01:44:59.810Z,990.83
2019-02-27T01:45:59.662Z,990.87
2019-02-27T01:47:02.122Z,990.81
2019-02-27T01:47:59.625Z,990.84
2019-02-27T01:48:59.629Z,990.79
2019-02-27T01:49:59.650Z,990.73
2019-02-27T01:50:59.642Z,990.81
2019-02-27T01:52:02.072Z,990.71
2019-02-27T01:52:59.676Z,990.76
2019-02-27T01:53:59.673Z,990.71
2019-02-27T01:54:59.658Z,990.69
2019-02-27T01:55:59.661Z,990.64
2019-02-27T01:56:59.899Z,990.68
2019-02-27T01:57:59.695Z,990.65
2019-02-27T01:58:59.719Z,990.64
2019-02-27T01:59:59.689Z,990.67
2019-02-27T02:00:59.703Z,990.68
2019-02-27T02:02:01.086Z,990.65
2019-02-27T02:02:59.734Z,990.63
2019-02-27T02:03:59.744Z,990.61
2019-02-27T02:04:59.729Z,990.60
2019-02-27T02:05:59.854Z,990.58
2019-02-27T02:06:59.743Z,990.60
2019-02-27T02:07:59.766Z,990.54
2019-02-27T02:08:59.773Z,990.59
2019-02-27T02:09:59.802Z,990.54
2019-02-27T02:11:01.421Z,990.57
2019-02-27T02:11:59.794Z,990.56
2019-02-27T02:12:59.811Z,990.61
2019-02-27T02:13:59.814Z,990.57
2019-02-27T02:14:59.817Z,990.53
2019-02-27T02:16:00.872Z,990.55
2019-02-27T02:16:59.816Z,990.60
2019-02-27T02:17:59.623Z,990.50
2019-02-27T02:18:59.646Z,990.58
2019-02-27T02:19:59.649Z,990.51
2019-02-27T02:21:01.665Z,990.53
2019-02-27T02:21:59.679Z,990.52
2019-02-27T02:22:59.677Z,990.55
2019-02-27T02:23:59.681Z,990.54
2019-02-27T02:24:59.671Z,990.55
2019-02-27T02:26:01.188Z,990.53
2019-02-27T02:26:59.680Z,990.57
2019-02-27T02:27:59.718Z,990.51
2019-02-27T02:28:59.707Z,990.55
2019-02-27T02:29:59.712Z,990.53
2019-02-27T02:31:05.017Z,990.54
2019-02-27T02:31:59.759Z,990.49
2019-02-27T02:32:59.750Z,990.54
2019-02-27T02:34:05.070Z,990.55
2019-02-27T02:34:59.779Z,990.62
2019-02-27T02:35:59.759Z,990.67
2019-02-27T02:37:02.518Z,990.61
2019-02-27T02:37:59.782Z,990.60
2019-02-27T02:38:59.795Z,990.69
2019-02-27T02:39:59.794Z,990.69
2019-02-27T02:40:59.795Z,990.67
2019-02-27T02:41:59.809Z,990.67
2019-02-27T02:43:03.088Z,990.65
2019-02-27T02:43:59.818Z,990.68
2019-02-27T02:44:59.822Z,990.70
2019-02-27T02:45:59.858Z,990.70
2019-02-27T02:46:59.819Z,990.70
2019-02-27T02:47:59.622Z,990.71
2019-02-27T02:49:06.262Z,990.75
2019-02-27T02:49:59.684Z,990.66
2019-02-27T02:51:00.285Z,990.63
2019-02-27T02:52:04.531Z,990.57
2019-02-27T02:52:59.686Z,990.58
2019-02-27T02:54:01.872Z,990.53
2019-02-27T02:54:59.754Z,990.54
2019-02-27T02:55:59.732Z,990.57
2019-02-27T02:57:00.749Z,990.53
2019-02-27T02:57:59.709Z,990.53
2019-02-27T02:58:59.732Z,990.49
2019-02-27T03:00:00.981Z,990.44
2019-02-27T03:00:59.730Z,990.51
2019-02-27T03:01:59.739Z,990.53
2019-02-27T03:03:00.962Z,990.48
2019-02-27T03:03:59.746Z,990.51
2019-02-27T03:04:59.767Z,990.61
2019-02-27T03:06:00.063Z,990.59
2019-02-27T03:06:59.783Z,990.61
2019-02-27T03:07:59.803Z,990.50
2019-02-27T03:08:59.824Z,990.54
2019-02-27T03:09:59.793Z,990.59
2019-02-27T03:10:59.809Z,990.55
2019-02-27T03:11:59.829Z,990.57
2019-02-27T03:13:05.766Z,990.55
2019-02-27T03:13:59.840Z,990.57
2019-02-27T03:14:59.868Z,990.54
2019-02-27T03:16:04.123Z,990.62
2019-02-27T03:16:59.845Z,990.63
2019-02-27T03:17:59.657Z,990.58
2019-02-27T03:19:04.846Z,990.64
2019-02-27T03:19:59.697Z,990.55
2019-02-27T03:20:59.727Z,990.56
2019-02-27T03:22:03.042Z,990.57
2019-02-27T03:22:59.674Z,990.52
2019-02-27T03:23:59.693Z,990.48
2019-02-27T03:25:03.610Z,990.51
2019-02-27T03:25:59.727Z,990.46
2019-02-27T03:26:59.753Z,990.40
2019-02-27T03:28:04.713Z,990.50
2019-02-27T03:28:59.737Z,990.47
2019-02-27T03:29:59.733Z,990.33
2019-02-27T03:30:59.744Z,990.32
2019-02-27T03:32:00.957Z,990.36
2019-02-27T03:32:59.764Z,990.39
2019-02-27T03:34:05.497Z,990.33
2019-02-27T03:34:59.782Z,990.30
2019-02-27T03:35:59.865Z,990.29
2019-02-27T03:36:59.803Z,990.25
2019-02-27T03:37:59.832Z,990.30
2019-02-27T03:39:00.272Z,990.23
2019-02-27T03:39:59.818Z,990.11
2019-02-27T03:40:59.819Z,990.25
2019-02-27T03:41:59.845Z,990.25
2019-02-27T03:42:59.843Z,990.28
2019-02-27T03:43:59.877Z,990.22
2019-02-27T03:44:59.871Z,990.21
2019-02-27T03:46:02.992Z,990.46
2019-02-27T03:46:59.861Z,990.08
2019-02-27T03:47:59.881Z,990.19
2019-02-27T03:49:03.144Z,990.27
2019-02-27T03:49:59.709Z,990.23
2019-02-27T03:50:59.698Z,990.22
2019-02-27T03:52:00.504Z,990.23
2019-02-27T03:52:59.714Z,990.28
2019-02-27T03:53:59.718Z,990.28
2019-02-27T03:54:59.704Z,990.26
2019-02-27T03:55:59.721Z,990.30
2019-02-27T03:56:59.768Z,990.34
2019-02-27T03:57:59.750Z,990.24
2019-02-27T03:59:05.525Z,990.24
2019-02-27T03:59:59.750Z,990.18
2019-02-27T04:00:59.765Z,990.29
2019-02-27T04:02:05.844Z,990.30
2019-02-27T04:02:59.828Z,990.32
2019-02-27T04:03:59.790Z,990.32
2019-02-27T04:05:05.184Z,990.33
2019-02-27T04:05:59.799Z,990.38
2019-02-27T04:06:59.808Z,990.42
2019-02-27T04:07:59.850Z,990.46
2019-02-27T04:08:59.848Z,990.40
2019-02-27T04:09:59.834Z,990.49
2019-02-27T04:11:05.465Z,990.37
2019-02-27T04:11:59.851Z,990.37
2019-02-27T04:12:59.854Z,990.40
2019-02-27T04:14:05.017Z,990.40
2019-02-27T04:14:59.889Z,990.37
2019-02-27T04:15:59.879Z,990.40
2019-02-27T04:17:05.357Z,990.29
2019-02-27T04:17:59.897Z,990.32
2019-02-27T04:19:03.492Z,990.31
2019-02-27T04:19:59.723Z,990.27
2019-02-27T04:20:59.722Z,990.30
2019-02-27T04:22:01.120Z,990.25
2019-02-27T04:22:59.723Z,990.18
2019-02-27T04:23:59.722Z,990.29
2019-02-27T04:24:59.745Z,990.35
2019-02-27T04:26:05.281Z,990.22
2019-02-27T04:26:59.768Z,990.28
2019-02-27T04:27:59.771Z,990.33
2019-02-27T04:29:04.145Z,990.38
2019-02-27T04:29:59.797Z,990.30
2019-02-27T04:30:59.774Z,990.28
2019-02-27T04:31:59.807Z,990.29
2019-02-27T04:32:59.804Z,990.34
2019-02-27T04:34:00.262Z,990.17
2019-02-27T04:34:59.824Z,990.20
2019-02-27T04:35:59.805Z,990.25
2019-02-27T04:36:59.836Z,990.25
2019-02-27T04:37:59.837Z,990.18
2019-02-27T04:38:59.987Z,990.21
2019-02-27T04:39:59.857Z,990.20
2019-02-27T04:40:59.854Z,990.24
2019-02-27T04:41:59.857Z,990.17
2019-02-27T04:42:59.961Z,990.27
2019-02-27T04:43:59.883Z,990.24
2019-02-27T04:44:59.890Z,990.18
2019-02-27T04:45:59.890Z,990.20
2019-02-27T04:46:59.909Z,990.18
2019-02-27T04:47:59.914Z,990.14
2019-02-27T04:49:03.902Z,990.08
2019-02-27T04:49:59.724Z,990.19
2019-02-27T04:50:59.735Z,990.13
2019-02-27T04:51:59.706Z,990.24
2019-02-27T04:52:59.731Z,990.20
2019-02-27T04:53:59.724Z,990.23
2019-02-27T04:54:59.747Z,990.22
2019-02-27T04:55:59.780Z,990.23
2019-02-27T04:56:59.785Z,990.27
2019-02-27T04:57:59.784Z,990.20
2019-02-27T04:58:59.788Z,990.28
2019-02-27T04:59:59.780Z,990.28
2019-02-27T05:00:59.851Z,990.26
2019-02-27T05:01:59.827Z,990.31
2019-02-27T05:02:59.832Z,990.25
2019-02-27T05:04:01.539Z,990.33
2019-02-27T05:04:59.819Z,990.25
2019-02-27T05:05:59.832Z,990.26
2019-02-27T05:06:59.836Z,990.27
2019-02-27T05:07:59.857Z,990.29
2019-02-27T05:09:00.217Z,990.29
2019-02-27T05:09:59.879Z,990.28
2019-02-27T05:10:59.875Z,990.37
2019-02-27T05:11:59.879Z,990.38
2019-02-27T05:12:59.889Z,990.40
2019-02-27T05:13:59.899Z,990.31
2019-02-27T05:15:00.947Z,990.41
2019-02-27T05:15:59.898Z,990.35
2019-02-27T05:16:59.923Z,990.32
2019-02-27T05:17:59.927Z,990.33
2019-02-27T05:19:03.565Z,990.39
2019-02-27T05:19:59.940Z,990.47
2019-02-27T05:20:59.952Z,990.40
2019-02-27T05:22:01.246Z,990.42
2019-02-27T05:23:00.387Z,990.47
2019-02-27T05:23:59.760Z,990.44
2019-02-27T05:24:59.767Z,990.38
2019-02-27T05:25:59.779Z,990.48
2019-02-27T05:27:00.721Z,990.53
2019-02-27T05:28:01.537Z,990.46
2019-02-27T05:28:59.802Z,990.40
2019-02-27T05:30:00.103Z,990.44
2019-02-27T05:30:59.836Z,990.52
2019-02-27T05:31:59.834Z,990.49
2019-02-27T05:33:01.996Z,990.54
2019-02-27T05:33:59.897Z,990.52
2019-02-27T05:34:59.837Z,990.61
2019-02-27T05:35:59.857Z,990.67
2019-02-27T05:36:59.838Z,990.66
2019-02-27T05:37:59.875Z,990.65
2019-02-27T05:38:59.878Z,990.63
2019-02-27T05:40:00.230Z,990.66
2019-02-27T05:41:00.587Z,990.73
2019-02-27T05:42:00.916Z,990.65
2019-02-27T05:42:59.889Z,990.76
2019-02-27T05:43:59.915Z,990.69
2019-02-27T05:44:59.937Z,990.76
2019-02-27T05:46:02.727Z,990.75
2019-02-27T05:46:59.923Z,990.76
2019-02-27T05:47:59.926Z,990.82
2019-02-27T05:48:59.931Z,990.83
2019-02-27T05:50:00.671Z,990.79
2019-02-27T05:50:59.967Z,990.84
2019-02-27T05:51:59.760Z,990.81
2019-02-27T05:52:59.772Z,990.82
2019-02-27T05:53:59.774Z,990.88
2019-02-27T05:54:59.793Z,990.89
2019-02-27T05:55:59.772Z,990.88
2019-02-27T05:56:59.820Z,990.85
2019-02-27T05:57:59.810Z,990.88
2019-02-27T05:58:59.804Z,990.87
2019-02-27T06:00:02.184Z,990.89
2019-02-27T06:01:04.624Z,991.01
2019-02-27T06:01:59.845Z,990.95
2019-02-27T06:02:59.869Z,990.97
2019-02-27T06:03:59.849Z,991.00
2019-02-27T06:04:59.838Z,990.93
2019-02-27T06:05:59.850Z,990.94
2019-02-27T06:06:59.872Z,990.97
2019-02-27T06:08:02.040Z,990.96
2019-02-27T06:08:59.894Z,990.97
2019-02-27T06:09:59.944Z,991.02
2019-02-27T06:10:59.893Z,991.02
2019-02-27T06:11:59.907Z,991.06
2019-02-27T06:12:59.905Z,991.12
2019-02-27T06:13:59.928Z,991.04
2019-02-27T06:14:59.935Z,991.07
2019-02-27T06:16:02.781Z,991.11
2019-02-27T06:16:59.939Z,991.12
2019-02-27T06:17:59.942Z,991.10
2019-02-27T06:18:59.954Z,991.05
2019-02-27T06:19:59.982Z,991.11
2019-02-27T06:20:59.981Z,991.09
2019-02-27T06:21:59.992Z,991.05
2019-02-27T06:23:04.125Z,991.06
2019-02-27T06:23:59.789Z,991.06
2019-02-27T06:24:59.800Z,991.06
2019-02-27T06:26:00.179Z,991.11
2019-02-27T06:26:59.814Z,991.20
2019-02-27T06:27:59.817Z,991.17
2019-02-27T06:28:59.794Z,991.08
2019-02-27T06:29:59.867Z,991.09
2019-02-27T06:31:02.500Z,991.08
2019-02-27T06:31:59.865Z,991.03
2019-02-27T06:32:59.888Z,991.03
2019-02-27T06:33:59.875Z,990.99
2019-02-27T06:34:59.986Z,990.98
2019-02-27T06:35:59.872Z,990.99
2019-02-27T06:36:59.872Z,990.98
2019-02-27T06:37:59.917Z,990.95
2019-02-27T06:39:00.851Z,990.96
2019-02-27T06:39:59.889Z,990.95
2019-02-27T06:40:59.944Z,990.95
2019-02-27T06:41:59.892Z,991.02
2019-02-27T06:42:59.931Z,991.07
2019-02-27T06:44:01.484Z,991.03
2019-02-27T06:44:59.943Z,990.99
2019-02-27T06:45:59.940Z,991.01
2019-02-27T06:46:59.985Z,990.96
2019-02-27T06:47:59.959Z,991.02
2019-02-27T06:48:59.965Z,990.97
2019-02-27T06:49:59.996Z,990.97
2019-02-27T06:51:00.973Z,991.00
2019-02-27T06:51:59.991Z,990.98
2019-02-27T06:52:59.800Z,991.00
2019-02-27T06:53:59.799Z,991.06
2019-02-27T06:54:59.816Z,991.08
2019-02-27T06:56:02.943Z,990.98
2019-02-27T06:56:59.844Z,991.06
2019-02-27T06:57:59.837Z,991.05
2019-02-27T06:58:59.838Z,991.06
2019-02-27T07:00:01.988Z,991.03
2019-02-27T07:00:59.858Z,991.05
2019-02-27T07:01:59.874Z,991.09
2019-02-27T07:02:59.892Z,991.08
2019-02-27T07:04:02.259Z,991.08
2019-02-27T07:04:59.936Z,991.06
2019-02-27T07:05:59.875Z,991.05
2019-02-27T07:07:00.621Z,991.02
2019-02-27T07:08:02.210Z,991.10
2019-02-27T07:08:59.915Z,991.10
2019-02-27T07:09:59.913Z,991.13
2019-02-27T07:11:10.452Z,991.12
2019-02-27T07:11:59.936Z,991.15
2019-02-27T07:12:59.966Z,991.17
2019-02-27T07:13:59.992Z,991.17
2019-02-27T07:14:59.969Z,991.11
2019-02-27T07:15:59.970Z,991.14
2019-02-27T07:16:59.966Z,991.21
2019-02-27T07:17:59.986Z,991.23
2019-02-27T07:18:59.995Z,991.19
2019-02-27T07:19:59.995Z,991.14
2019-02-27T07:21:00.009Z,991.16
2019-02-27T07:22:00.002Z,991.23
2019-02-27T07:23:00.007Z,991.17
2019-02-27T07:23:59.805Z,991.24
2019-02-27T07:24:59.832Z,991.22
2019-02-27T07:25:59.833Z,991.19
2019-02-27T07:26:59.854Z,991.17
2019-02-27T07:27:59.856Z,991.15
2019-02-27T07:28:59.846Z,991.24
2019-02-27T07:29:59.847Z,991.23
2019-02-27T07:30:59.870Z,991.20
2019-02-27T07:31:59.889Z,991.25
2019-02-27T07:32:59.964Z,991.26
2019-02-27T07:33:59.906Z,991.24
2019-02-27T07:34:59.947Z,991.22
2019-02-27T07:36:03.163Z,991.20
2019-02-27T07:36:59.917Z,991.24
2019-02-27T07:37:59.930Z,991.20
2019-02-27T07:38:59.929Z,991.20
2019-02-27T07:39:59.938Z,991.15
2019-02-27T07:40:59.949Z,991.18
2019-02-27T07:41:59.970Z,991.19
2019-02-27T07:42:59.951Z,991.22
2019-02-27T07:43:59.988Z,991.29
2019-02-27T07:44:59.985Z,991.30
2019-02-27T07:45:59.988Z,991.26
2019-02-27T07:46:59.981Z,991.23
2019-02-27T07:48:00.000Z,991.27
2019-02-27T07:49:01.498Z,991.27
2019-02-27T07:50:02.671Z,991.27
2019-02-27T07:51:00.023Z,991.26
2019-02-27T07:52:00.011Z,991.22
2019-02-27T07:53:00.032Z,991.26
2019-02-27T07:54:00.025Z,991.26
2019-02-27T07:55:00.241Z,991.25
2019-02-27T07:55:59.875Z,991.36
2019-02-27T07:56:59.888Z,991.25
2019-02-27T07:57:59.863Z,991.20
2019-02-27T07:58:59.875Z,991.33
2019-02-27T07:59:59.853Z,991.27
2019-02-27T08:00:59.886Z,991.21
2019-02-27T08:02:02.306Z,991.28
2019-02-27T08:02:59.928Z,991.30
2019-02-27T08:03:59.918Z,991.22
2019-02-27T08:05:00.494Z,991.21
2019-02-27T08:06:02.360Z,991.27
2019-02-27T08:06:59.923Z,991.23
2019-02-27T08:07:59.940Z,991.13
2019-02-27T08:09:00.135Z,991.15
2019-02-27T08:10:03.593Z,991.11
2019-02-27T08:11:00.307Z,991.12
2019-02-27T08:12:00.162Z,991.13
2019-02-27T08:13:00.003Z,991.06
2019-02-27T08:14:00.771Z,991.10
2019-02-27T08:14:59.983Z,991.14
2019-02-27T08:15:59.990Z,991.08
2019-02-27T08:17:00.011Z,991.07
2019-02-27T08:18:00.050Z,991.05
2019-02-27T08:19:00.011Z,991.08
2019-02-27T08:20:00.042Z,991.08
2019-02-27T08:21:00.253Z,991.06
2019-02-27T08:22:00.025Z,991.02
2019-02-27T08:23:00.049Z,991.02
2019-02-27T08:24:06.473Z,991.01
2019-02-27T08:24:59.862Z,991.04
2019-02-27T08:26:04.755Z,991.01
2019-02-27T08:27:00.058Z,990.97
2019-02-27T08:27:59.855Z,991.08
2019-02-27T08:28:59.876Z,991.09
2019-02-27T08:30:00.004Z,991.06
2019-02-27T08:30:59.897Z,991.05
2019-02-27T08:32:01.206Z,991.05
2019-02-27T08:32:59.909Z,991.06
2019-02-27T08:34:00.123Z,991.01
2019-02-27T08:34:59.925Z,990.96
2019-02-27T08:35:59.926Z,991.01
2019-02-27T08:36:59.945Z,991.04
2019-02-27T08:38:02.821Z,991.10
2019-02-27T08:38:59.960Z,991.01
2019-02-27T08:39:59.952Z,991.08
2019-02-27T08:40:59.960Z,991.16
2019-02-27T08:42:03.303Z,991.12
2019-02-27T08:43:00.594Z,991.01
2019-02-27T08:44:00.028Z,991.17
2019-02-27T08:44:59.974Z,991.11
2019-02-27T08:46:02.478Z,991.06
2019-02-27T08:47:00.008Z,991.09
2019-02-27T08:48:00.016Z,991.20
2019-02-27T08:49:00.078Z,991.13
2019-02-27T08:50:00.011Z,991.14
2019-02-27T08:51:00.023Z,991.21
2019-02-27T08:52:00.056Z,991.16
2019-02-27T08:53:00.036Z,991.04
2019-02-27T08:54:00.091Z,991.05
2019-02-27T08:55:00.145Z,991.18
2019-02-27T08:56:00.093Z,991.11
2019-02-27T08:56:59.888Z,991.16
2019-02-27T08:57:59.887Z,991.18
2019-02-27T08:58:59.906Z,991.16
2019-02-27T08:59:59.910Z,991.18
2019-02-27T09:00:59.909Z,991.21
2019-02-27T09:01:59.919Z,991.20
2019-02-27T09:03:02.504Z,991.24
2019-02-27T09:03:59.932Z,991.25
2019-02-27T09:04:59.995Z,991.20
2019-02-27T09:05:59.942Z,991.20
2019-02-27T09:07:02.716Z,991.24
2019-02-27T09:07:59.941Z,991.19
2019-02-27T09:08:59.969Z,991.14
2019-02-27T09:10:00.000Z,991.17
2019-02-27T09:11:05.609Z,991.14
2019-02-27T09:11:59.997Z,991.13
2019-02-27T09:13:05.382Z,991.11
2019-02-27T09:14:00.015Z,991.19
2019-02-27T09:15:00.054Z,991.07
2019-02-27T09:16:00.012Z,991.09
2019-02-27T09:17:00.028Z,991.02
2019-02-27T09:18:01.911Z,990.96
2019-02-27T09:19:00.040Z,991.08
2019-02-27T09:20:00.068Z,990.99
2019-02-27T09:21:00.067Z,991.03
2019-02-27T09:22:02.354Z,991.01
2019-02-27T09:23:00.066Z,990.96
2019-02-27T09:24:00.453Z,990.86
2019-02-27T09:25:00.093Z,991.00
2019-02-27T09:26:02.466Z,990.98
2019-02-27T09:27:00.150Z,990.86
2019-02-27T09:27:59.941Z,990.86
2019-02-27T09:28:59.910Z,990.86
2019-02-27T09:29:59.919Z,990.87
2019-02-27T09:31:03.185Z,990.83
2019-02-27T09:31:59.976Z,990.89
2019-02-27T09:32:59.921Z,990.90
2019-02-27T09:33:59.939Z,990.80
2019-02-27T09:35:00.207Z,990.90
2019-02-27T09:35:59.966Z,990.71
2019-02-27T09:37:00.003Z,990.82
2019-02-27T09:37:59.974Z,990.92
2019-02-27T09:38:59.989Z,990.76
2019-02-27T09:40:04.786Z,990.83
2019-02-27T09:41:00.029Z,990.91
2019-02-27T09:42:00.038Z,990.95
2019-02-27T09:43:00.050Z,990.94
2019-02-27T09:44:01.318Z,990.82
2019-02-27T09:45:00.027Z,990.81
2019-02-27T09:46:00.018Z,990.82
2019-02-27T09:47:00.038Z,990.84
2019-02-27T09:48:03.055Z,990.80
2019-02-27T09:49:00.066Z,990.80
2019-02-27T09:50:00.107Z,990.83
2019-02-27T09:51:00.066Z,990.74
2019-02-27T09:52:00.077Z,990.77
2019-02-27T09:53:01.047Z,990.83
2019-02-27T09:54:00.081Z,990.87
2019-02-27T09:55:00.278Z,990.89
2019-02-27T09:56:00.109Z,990.89
2019-02-27T09:57:02.267Z,990.88
2019-02-27T09:58:00.132Z,990.79
2019-02-27T09:59:00.137Z,990.82
2019-02-27T09:59:59.970Z,990.75
2019-02-27T10:01:01.526Z,990.82
2019-02-27T10:01:59.946Z,990.77
2019-02-27T10:02:59.944Z,990.84
2019-02-27T10:03:59.960Z,990.83
2019-02-27T10:05:03.014Z,990.77
2019-02-27T10:05:59.978Z,990.69
2019-02-27T10:06:59.963Z,990.74
2019-02-27T10:08:00.008Z,990.70
2019-02-27T10:08:59.998Z,990.70
2019-02-27T10:10:00.033Z,990.77
2019-02-27T10:11:00.013Z,990.67
2019-02-27T10:12:00.020Z,990.69
2019-02-27T10:13:00.013Z,990.74
2019-02-27T10:14:00.040Z,990.68
2019-02-27T10:15:00.151Z,990.65
2019-02-27T10:16:01.380Z,990.69
2019-02-27T10:17:00.061Z,990.75
2019-02-27T10:18:00.064Z,990.67
2019-02-27T10:19:01.104Z,990.57
2019-02-27T10:20:02.448Z,990.67
2019-02-27T10:21:00.100Z,990.68
2019-02-27T10:22:00.097Z,990.67
2019-02-27T10:23:00.092Z,990.71
2019-02-27T10:24:04.434Z,990.71
2019-02-27T10:25:00.304Z,990.63
2019-02-27T10:26:00.144Z,990.69
2019-02-27T10:27:00.141Z,990.59
2019-02-27T10:28:03.264Z,990.61
2019-02-27T10:29:00.151Z,990.52
2019-02-27T10:30:00.225Z,990.53
2019-02-27T10:32:00.793Z,990.49
2019-02-27T10:32:59.958Z,990.51
2019-02-27T10:34:00.490Z,990.47
2019-02-27T10:34:59.989Z,990.48
2019-02-27T10:36:03.019Z,990.53
2019-02-27T10:37:00.108Z,990.55
2019-02-27T10:38:00.014Z,990.44
2019-02-27T10:39:02.075Z,990.53
2019-02-27T10:40:00.032Z,990.64
2019-02-27T10:41:00.033Z,990.60
2019-02-27T10:42:00.074Z,990.48
2019-02-27T10:43:00.099Z,990.46
2019-02-27T10:44:00.059Z,990.48
2019-02-27T10:45:00.050Z,990.48
2019-02-27T10:46:00.051Z,990.45
2019-02-27T10:47:00.744Z,990.34
2019-02-27T10:48:00.091Z,990.35
2019-02-27T10:49:00.083Z,990.38
2019-02-27T10:50:02.139Z,990.41
2019-02-27T10:51:00.232Z,990.42
2019-02-27T10:52:00.111Z,990.34
2019-02-27T10:53:00.102Z,990.29
2019-02-27T10:54:04.664Z,990.30
2019-02-27T10:55:00.346Z,990.42
2019-02-27T10:56:00.151Z,990.37
2019-02-27T10:57:00.170Z,990.32
2019-02-27T10:58:00.174Z,990.37
2019-02-27T10:59:00.181Z,990.38
2019-02-27T11:00:00.293Z,990.34
2019-02-27T11:01:01.181Z,990.34
2019-02-27T11:02:00.010Z,990.33
2019-02-27T11:02:59.979Z,990.20
2019-02-27T11:04:00.461Z,990.22
2019-02-27T11:04:59.991Z,990.18
2019-02-27T11:06:00.014Z,990.18
2019-02-27T11:07:00.015Z,990.12
2019-02-27T11:08:00.028Z,990.06
2019-02-27T11:09:04.477Z,990.15
2019-02-27T11:10:00.017Z,990.17
2019-02-27T11:11:00.036Z,990.14
2019-02-27T11:12:00.059Z,990.12
2019-02-27T11:13:00.093Z,990.15
2019-02-27T11:14:00.038Z,990.16
2019-02-27T11:15:00.113Z,990.21
2019-02-27T11:16:00.071Z,990.20
2019-02-27T11:17:02.568Z,990.07
2019-02-27T11:18:04.385Z,989.96
2019-02-27T11:19:00.143Z,990.02
2019-02-27T11:20:00.216Z,990.02
2019-02-27T11:21:00.117Z,990.02
2019-02-27T11:22:00.126Z,990.02
2019-02-27T11:23:00.105Z,990.00
2019-02-27T11:24:00.144Z,990.01
2019-02-27T11:25:00.255Z,990.08
2019-02-27T11:26:00.177Z,989.98
2019-02-27T11:27:00.161Z,990.05
2019-02-27T11:28:00.152Z,990.05
2019-02-27T11:29:00.182Z,989.92
2019-02-27T11:30:02.890Z,989.89
2019-02-27T11:31:00.192Z,989.93
2019-02-27T11:32:00.224Z,989.92
2019-02-27T11:33:00.183Z,989.98
2019-02-27T11:34:01.158Z,989.93
2019-02-27T11:35:00.026Z,989.95
2019-02-27T11:36:00.068Z,989.91
2019-02-27T11:37:00.015Z,989.85
2019-02-27T11:38:00.019Z,989.71
2019-02-27T11:39:00.062Z,989.82
2019-02-27T11:40:00.035Z,989.76
2019-02-27T11:41:00.056Z,989.79
2019-02-27T11:42:00.101Z,989.80
2019-02-27T11:43:01.127Z,989.70
2019-02-27T11:44:00.073Z,989.80
2019-02-27T11:45:00.164Z,989.72
2019-02-27T11:46:00.096Z,989.75
2019-02-27T11:47:00.121Z,989.64
2019-02-27T11:48:00.119Z,989.63
2019-02-27T11:49:02.976Z,989.64
2019-02-27T11:50:00.238Z,989.57
2019-02-27T11:51:00.124Z,989.54
2019-02-27T11:52:00.179Z,989.52
2019-02-27T11:53:02.801Z,989.56
2019-02-27T11:54:00.150Z,989.59
2019-02-27T11:55:00.319Z,989.60
2019-02-27T11:56:00.192Z,989.57
2019-02-27T11:57:00.179Z,989.48
2019-02-27T11:58:04.614Z,989.46
2019-02-27T11:59:00.173Z,989.54
2019-02-27T12:00:00.345Z,989.56
2019-02-27T12:01:00.211Z,989.50
2019-02-27T12:02:00.203Z,989.48
2019-02-27T12:03:00.233Z,989.46
2019-02-27T12:04:00.201Z,989.43
2019-02-27T12:05:00.232Z,989.35
2019-02-27T12:06:00.242Z,989.40
2019-02-27T12:07:00.044Z,989.38
2019-02-27T12:08:00.064Z,989.38
2019-02-27T12:09:00.341Z,989.35
2019-02-27T12:10:00.055Z,989.39
2019-02-27T12:11:00.079Z,989.34
2019-02-27T12:12:00.083Z,989.33
2019-02-27T12:13:01.171Z,989.32
2019-02-27T12:14:00.117Z,989.18
2019-02-27T12:15:00.293Z,989.27
2019-02-27T12:16:00.120Z,989.21
2019-02-27T12:17:00.103Z,989.35
2019-02-27T12:18:01.409Z,989.30
2019-02-27T12:19:00.128Z,989.29
2019-02-27T12:20:00.231Z,989.21
2019-02-27T12:21:00.348Z,989.26
2019-02-27T12:22:00.411Z,989.20
2019-02-27T12:23:00.157Z,989.25
2019-02-27T12:24:00.168Z,989.25
2019-02-27T12:25:00.281Z,989.20
2019-02-27T12:26:02.488Z,989.22
2019-02-27T12:27:00.174Z,989.08
2019-02-27T12:28:00.178Z,989.11
2019-02-27T12:29:00.209Z,989.15
2019-02-27T12:30:02.635Z,989.09